Terminal Aerodrome Forecast
Issued by NWS Wilmington, OH

Current Version | Previous Version | Graphics & Text | Print | Product List | Glossary Off
Versions: 1 2 3 4 5 6 7 8 9 10 11 12 13 14 15 16 17 18 19 20 21 22 23 24 25 26 27 28 29 30

000
FTUS41 KILN 011700
TAFCMH
TAF
KCMH 011722Z 0118/0218 12010G16KT P6SM BKN050 OVC100
     FM012100 14012G18KT 4SM -RA BR OVC025
      TEMPO 0121/0124 2SM RA BR OVC012
     FM020000 15012KT 4SM -RA BR OVC006
     FM020200 21010KT P6SM VCSH OVC006
     FM020900 31015G25KT P6SM VCSH OVC012
     FM021400 32015G25KT P6SM OVC015=

USA.gov is the U.S. government's official web portal to all federal, state and local government web resources and services.